sensor_id;sensor_type;location;lat;lon;timestamp;P1;durP1;ratioP1;P2;durP2;ratioP2
68140;SDS011;54941;52.220;104.306;2023-03-23T00:01:33;14.50;;;4.38;;
68140;SDS011;54941;52.220;104.306;2023-03-23T00:03:59;12.38;;;3.55;;
68140;SDS011;54941;52.220;104.306;2023-03-23T00:06:27;5.03;;;1.90;;
68140;SDS011;54941;52.220;104.306;2023-03-23T00:08:54;8.20;;;2.80;;
68140;SDS011;54941;52.220;104.306;2023-03-23T00:11:21;16.95;;;4.00;;
68140;SDS011;54941;52.220;104.306;2023-03-23T00:13:50;12.07;;;3.85;;
68140;SDS011;54941;52.220;104.306;2023-03-23T00:16:18;11.80;;;3.30;;
68140;SDS011;54941;52.220;104.306;2023-03-23T00:18:46;11.15;;;2.88;;
68140;SDS011;54941;52.220;104.306;2023-03-23T00:21:13;13.65;;;3.28;;
68140;SDS011;54941;52.220;104.306;2023-03-23T00:23:41;7.72;;;2.17;;
68140;SDS011;54941;52.220;104.306;2023-03-23T00:26:07;12.55;;;3.00;;
68140;SDS011;54941;52.220;104.306;2023-03-23T00:28:34;15.57;;;3.75;;
68140;SDS011;54941;52.220;104.306;2023-03-23T00:31:01;7.25;;;3.03;;
68140;SDS011;54941;52.220;104.306;2023-03-23T00:33:29;18.33;;;2.83;;
68140;SDS011;54941;52.220;104.306;2023-03-23T00:35:57;13.27;;;2.78;;
68140;SDS011;54941;52.220;104.306;2023-03-23T00:38:26;8.60;;;2.08;;
68140;SDS011;54941;52.220;104.306;2023-03-23T00:40:55;6.40;;;1.33;;
68140;SDS011;54941;52.220;104.306;2023-03-23T00:43:21;7.93;;;2.33;;
68140;SDS011;54941;52.220;104.306;2023-03-23T00:45:47;5.00;;;1.75;;
68140;SDS011;54941;52.220;104.306;2023-03-23T00:48:14;6.35;;;1.85;;
68140;SDS011;54941;52.220;104.306;2023-03-23T00:50:40;8.55;;;2.30;;
68140;SDS011;54941;52.220;104.306;2023-03-23T00:53:06;4.80;;;1.63;;
68140;SDS011;54941;52.220;104.306;2023-03-23T00:55:33;10.40;;;1.85;;
68140;SDS011;54941;52.220;104.306;2023-03-23T00:58:01;9.10;;;2.40;;
68140;SDS011;54941;52.220;104.306;2023-03-23T01:00:27;10.07;;;2.25;;
68140;SDS011;54941;52.220;104.306;2023-03-23T01:02:54;12.20;;;3.17;;
68140;SDS011;54941;52.220;104.306;2023-03-23T01:05:20;6.72;;;2.40;;
68140;SDS011;54941;52.220;104.306;2023-03-23T01:07:47;8.75;;;3.33;;
68140;SDS011;54941;52.220;104.306;2023-03-23T01:10:14;12.48;;;3.33;;
68140;SDS011;54941;52.220;104.306;2023-03-23T01:12:40;17.25;;;4.70;;
68140;SDS011;54941;52.220;104.306;2023-03-23T01:15:10;11.75;;;3.75;;
68140;SDS011;54941;52.220;104.306;2023-03-23T01:17:39;6.80;;;2.28;;
68140;SDS011;54941;52.220;104.306;2023-03-23T01:20:06;15.52;;;4.13;;
68140;SDS011;54941;52.220;104.306;2023-03-23T01:22:33;15.68;;;4.90;;
68140;SDS011;54941;52.220;104.306;2023-03-23T01:25:00;19.80;;;4.55;;
68140;SDS011;54941;52.220;104.306;2023-03-23T01:27:28;13.68;;;4.43;;
68140;SDS011;54941;52.220;104.306;2023-03-23T01:29:55;19.00;;;4.75;;
68140;SDS011;54941;52.220;104.306;2023-03-23T01:32:25;12.73;;;3.05;;
68140;SDS011;54941;52.220;104.306;2023-03-23T01:34:52;17.20;;;3.92;;
68140;SDS011;54941;52.220;104.306;2023-03-23T01:37:18;10.30;;;2.80;;
68140;SDS011;54941;52.220;104.306;2023-03-23T01:39:45;21.75;;;4.90;;
68140;SDS011;54941;52.220;104.306;2023-03-23T01:42:11;24.90;;;6.38;;
68140;SDS011;54941;52.220;104.306;2023-03-23T01:47:51;28.65;;;8.05;;
68140;SDS011;54941;52.220;104.306;2023-03-23T01:50:25;20.38;;;6.43;;
68140;SDS011;54941;52.220;104.306;2023-03-23T01:52:53;43.88;;;11.25;;
68140;SDS011;54941;52.220;104.306;2023-03-23T01:55:23;23.33;;;6.70;;
68140;SDS011;54941;52.220;104.306;2023-03-23T01:57:52;30.08;;;7.05;;
68140;SDS011;54941;52.220;104.306;2023-03-23T02:00:21;23.73;;;5.22;;
68140;SDS011;54941;52.220;104.306;2023-03-23T02:02:51;30.50;;;8.20;;
68140;SDS011;54941;52.220;104.306;2023-03-23T02:05:20;23.95;;;5.53;;
68140;SDS011;54941;52.220;104.306;2023-03-23T02:07:52;28.83;;;7.32;;
68140;SDS011;54941;52.220;104.306;2023-03-23T02:10:20;33.25;;;6.22;;
68140;SDS011;54941;52.220;104.306;2023-03-23T02:12:46;29.98;;;8.30;;
68140;SDS011;54941;52.220;104.306;2023-03-23T02:15:13;29.50;;;7.35;;
68140;SDS011;54941;52.220;104.306;2023-03-23T02:17:44;30.25;;;8.32;;
68140;SDS011;54941;52.220;104.306;2023-03-23T02:20:24;17.35;;;5.20;;
68140;SDS011;54941;52.220;104.306;2023-03-23T02:23:22;25.27;;;6.43;;
68140;SDS011;54941;52.220;104.306;2023-03-23T02:26:18;23.63;;;5.45;;
68140;SDS011;54941;52.220;104.306;2023-03-23T02:29:02;26.30;;;6.30;;
68140;SDS011;54941;52.220;104.306;2023-03-23T02:31:44;19.52;;;4.43;;
68140;SDS011;54941;52.220;104.306;2023-03-23T02:34:23;24.60;;;5.63;;
68140;SDS011;54941;52.220;104.306;2023-03-23T02:36:54;18.70;;;5.35;;
68140;SDS011;54941;52.220;104.306;2023-03-23T02:39:25;36.35;;;9.18;;
68140;SDS011;54941;52.220;104.306;2023-03-23T02:41:58;22.75;;;6.28;;
68140;SDS011;54941;52.220;104.306;2023-03-23T02:44:28;22.45;;;5.80;;
68140;SDS011;54941;52.220;104.306;2023-03-23T02:46:56;29.75;;;7.05;;
68140;SDS011;54941;52.220;104.306;2023-03-23T02:49:27;23.33;;;4.75;;
68140;SDS011;54941;52.220;104.306;2023-03-23T02:51:56;22.83;;;5.03;;
68140;SDS011;54941;52.220;104.306;2023-03-23T02:54:25;32.92;;;6.65;;
68140;SDS011;54941;52.220;104.306;2023-03-23T02:56:53;17.85;;;4.93;;
68140;SDS011;54941;52.220;104.306;2023-03-23T02:59:21;21.90;;;6.10;;
68140;SDS011;54941;52.220;104.306;2023-03-23T03:01:52;25.00;;;6.22;;
68140;SDS011;54941;52.220;104.306;2023-03-23T03:04:24;19.60;;;5.55;;
68140;SDS011;54941;52.220;104.306;2023-03-23T03:06:57;21.73;;;6.10;;
68140;SDS011;54941;52.220;104.306;2023-03-23T03:09:34;27.13;;;5.40;;
68140;SDS011;54941;52.220;104.306;2023-03-23T03:12:08;28.25;;;6.20;;
68140;SDS011;54941;52.220;104.306;2023-03-23T03:14:38;28.02;;;6.13;;
68140;SDS011;54941;52.220;104.306;2023-03-23T03:17:10;23.77;;;5.68;;
68140;SDS011;54941;52.220;104.306;2023-03-23T03:19:46;22.63;;;6.47;;
68140;SDS011;54941;52.220;104.306;2023-03-23T03:22:16;23.85;;;6.45;;
68140;SDS011;54941;52.220;104.306;2023-03-23T03:24:45;27.27;;;6.88;;
68140;SDS011;54941;52.220;104.306;2023-03-23T03:27:12;24.55;;;6.07;;
68140;SDS011;54941;52.220;104.306;2023-03-23T03:29:40;22.65;;;6.13;;
68140;SDS011;54941;52.220;104.306;2023-03-23T03:32:08;26.67;;;6.43;;
68140;SDS011;54941;52.220;104.306;2023-03-23T03:34:38;25.17;;;6.07;;
68140;SDS011;54941;52.220;104.306;2023-03-23T03:37:06;25.05;;;6.13;;
68140;SDS011;54941;52.220;104.306;2023-03-23T03:39:34;23.20;;;6.07;;
68140;SDS011;54941;52.220;104.306;2023-03-23T03:42:01;33.92;;;8.70;;
68140;SDS011;54941;52.220;104.306;2023-03-23T03:44:28;31.17;;;8.48;;
68140;SDS011;54941;52.220;104.306;2023-03-23T03:46:55;27.58;;;6.13;;
68140;SDS011;54941;52.220;104.306;2023-03-23T03:49:21;24.35;;;5.75;;
68140;SDS011;54941;52.220;104.306;2023-03-23T03:51:48;21.40;;;4.90;;
68140;SDS011;54941;52.220;104.306;2023-03-23T03:54:15;21.48;;;5.95;;
68140;SDS011;54941;52.220;104.306;2023-03-23T03:56:42;21.83;;;5.90;;
68140;SDS011;54941;52.220;104.306;2023-03-23T03:59:09;11.30;;;4.25;;
68140;SDS011;54941;52.220;104.306;2023-03-23T04:01:37;22.88;;;5.95;;
68140;SDS011;54941;52.220;104.306;2023-03-23T04:04:04;29.40;;;6.20;;
68140;SDS011;54941;52.220;104.306;2023-03-23T04:06:31;26.17;;;5.93;;
68140;SDS011;54941;52.220;104.306;2023-03-23T04:08:57;29.40;;;5.55;;
68140;SDS011;54941;52.220;104.306;2023-03-23T04:11:25;25.98;;;6.00;;
68140;SDS011;54941;52.220;104.306;2023-03-23T04:13:52;21.55;;;5.63;;
68140;SDS011;54941;52.220;104.306;2023-03-23T04:16:18;19.90;;;5.72;;
68140;SDS011;54941;52.220;104.306;2023-03-23T04:18:45;27.05;;;6.18;;
68140;SDS011;54941;52.220;104.306;2023-03-23T04:21:12;22.33;;;4.30;;
68140;SDS011;54941;52.220;104.306;2023-03-23T04:23:38;25.50;;;5.90;;
68140;SDS011;54941;52.220;104.306;2023-03-23T04:26:04;23.17;;;4.82;;
68140;SDS011;54941;52.220;104.306;2023-03-23T04:28:32;21.25;;;6.68;;
68140;SDS011;54941;52.220;104.306;2023-03-23T04:30:59;17.10;;;4.82;;
68140;SDS011;54941;52.220;104.306;2023-03-23T04:33:27;12.88;;;4.43;;
68140;SDS011;54941;52.220;104.306;2023-03-23T04:35:54;21.33;;;6.05;;
68140;SDS011;54941;52.220;104.306;2023-03-23T04:38:22;21.20;;;5.13;;
68140;SDS011;54941;52.220;104.306;2023-03-23T04:40:50;16.67;;;4.30;;
68140;SDS011;54941;52.220;104.306;2023-03-23T04:43:17;12.90;;;4.38;;
68140;SDS011;54941;52.220;104.306;2023-03-23T04:45:45;15.10;;;4.43;;
68140;SDS011;54941;52.220;104.306;2023-03-23T04:48:12;17.60;;;4.22;;
68140;SDS011;54941;52.220;104.306;2023-03-23T04:50:39;13.02;;;4.32;;
68140;SDS011;54941;52.220;104.306;2023-03-23T04:53:05;20.60;;;4.00;;
68140;SDS011;54941;52.220;104.306;2023-03-23T04:55:32;12.60;;;3.95;;
68140;SDS011;54941;52.220;104.306;2023-03-23T04:58:00;10.63;;;3.70;;
68140;SDS011;54941;52.220;104.306;2023-03-23T05:00:27;20.55;;;5.15;;
68140;SDS011;54941;52.220;104.306;2023-03-23T05:02:55;13.70;;;3.97;;
68140;SDS011;54941;52.220;104.306;2023-03-23T05:05:22;15.60;;;3.67;;
68140;SDS011;54941;52.220;104.306;2023-03-23T05:07:49;11.52;;;3.40;;
68140;SDS011;54941;52.220;104.306;2023-03-23T05:10:15;12.10;;;3.63;;
68140;SDS011;54941;52.220;104.306;2023-03-23T05:12:42;11.38;;;3.45;;
68140;SDS011;54941;52.220;104.306;2023-03-23T05:15:09;6.47;;;2.55;;
68140;SDS011;54941;52.220;104.306;2023-03-23T05:17:37;7.55;;;2.30;;
68140;SDS011;54941;52.220;104.306;2023-03-23T05:20:06;13.55;;;2.88;;
68140;SDS011;54941;52.220;104.306;2023-03-23T05:22:33;8.05;;;2.85;;
68140;SDS011;54941;52.220;104.306;2023-03-23T05:25:00;9.50;;;2.42;;
68140;SDS011;54941;52.220;104.306;2023-03-23T05:27:26;9.38;;;2.33;;
68140;SDS011;54941;52.220;104.306;2023-03-23T05:29:52;7.07;;;2.80;;
68140;SDS011;54941;52.220;104.306;2023-03-23T05:32:19;5.35;;;1.83;;
68140;SDS011;54941;52.220;104.306;2023-03-23T05:34:45;4.72;;;1.73;;
68140;SDS011;54941;52.220;104.306;2023-03-23T05:37:13;6.80;;;2.20;;
68140;SDS011;54941;52.220;104.306;2023-03-23T05:39:39;7.22;;;2.78;;
68140;SDS011;54941;52.220;104.306;2023-03-23T05:42:06;6.82;;;2.08;;
68140;SDS011;54941;52.220;104.306;2023-03-23T05:44:32;5.10;;;1.73;;
68140;SDS011;54941;52.220;104.306;2023-03-23T05:46:59;9.23;;;2.70;;
68140;SDS011;54941;52.220;104.306;2023-03-23T05:49:25;7.68;;;2.75;;
68140;SDS011;54941;52.220;104.306;2023-03-23T05:51:51;10.88;;;2.13;;
68140;SDS011;54941;52.220;104.306;2023-03-23T05:54:22;5.53;;;2.13;;
68140;SDS011;54941;52.220;104.306;2023-03-23T05:56:48;8.80;;;2.63;;
68140;SDS011;54941;52.220;104.306;2023-03-23T05:59:14;9.85;;;3.03;;
68140;SDS011;54941;52.220;104.306;2023-03-23T06:01:41;7.53;;;2.47;;
68140;SDS011;54941;52.220;104.306;2023-03-23T06:04:07;6.85;;;2.05;;
68140;SDS011;54941;52.220;104.306;2023-03-23T06:06:34;8.27;;;2.08;;
68140;SDS011;54941;52.220;104.306;2023-03-23T06:09:00;6.40;;;1.95;;
68140;SDS011;54941;52.220;104.306;2023-03-23T06:11:28;5.22;;;1.98;;
68140;SDS011;54941;52.220;104.306;2023-03-23T06:13:57;7.85;;;1.63;;
68140;SDS011;54941;52.220;104.306;2023-03-23T06:16:23;9.85;;;2.42;;
68140;SDS011;54941;52.220;104.306;2023-03-23T06:18:52;5.97;;;1.90;;
68140;SDS011;54941;52.220;104.306;2023-03-23T06:21:19;7.47;;;1.73;;
68140;SDS011;54941;52.220;104.306;2023-03-23T06:23:45;4.55;;;1.70;;
68140;SDS011;54941;52.220;104.306;2023-03-23T06:26:12;6.97;;;1.90;;
68140;SDS011;54941;52.220;104.306;2023-03-23T06:28:41;5.45;;;1.55;;
68140;SDS011;54941;52.220;104.306;2023-03-23T06:31:08;19.95;;;7.47;;
68140;SDS011;54941;52.220;104.306;2023-03-23T06:33:34;6.68;;;2.00;;
68140;SDS011;54941;52.220;104.306;2023-03-23T06:36:04;9.25;;;2.72;;
68140;SDS011;54941;52.220;104.306;2023-03-23T06:38:31;4.53;;;1.98;;
68140;SDS011;54941;52.220;104.306;2023-03-23T06:40:57;5.38;;;2.05;;
68140;SDS011;54941;52.220;104.306;2023-03-23T06:43:24;9.65;;;1.70;;
68140;SDS011;54941;52.220;104.306;2023-03-23T06:45:52;7.40;;;3.30;;
68140;SDS011;54941;52.220;104.306;2023-03-23T06:48:18;5.57;;;2.05;;
68140;SDS011;54941;52.220;104.306;2023-03-23T06:50:45;6.82;;;2.65;;
68140;SDS011;54941;52.220;104.306;2023-03-23T06:53:14;5.53;;;1.40;;
68140;SDS011;54941;52.220;104.306;2023-03-23T06:55:42;5.15;;;1.80;;
68140;SDS011;54941;52.220;104.306;2023-03-23T06:58:09;8.85;;;2.78;;
68140;SDS011;54941;52.220;104.306;2023-03-23T07:00:36;6.93;;;2.55;;
68140;SDS011;54941;52.220;104.306;2023-03-23T07:03:07;7.22;;;2.33;;
68140;SDS011;54941;52.220;104.306;2023-03-23T07:05:34;7.75;;;2.22;;
68140;SDS011;54941;52.220;104.306;2023-03-23T07:08:01;7.10;;;2.40;;
68140;SDS011;54941;52.220;104.306;2023-03-23T07:10:30;7.07;;;2.47;;
68140;SDS011;54941;52.220;104.306;2023-03-23T07:12:57;4.68;;;2.10;;
68140;SDS011;54941;52.220;104.306;2023-03-23T07:15:23;4.70;;;2.00;;
68140;SDS011;54941;52.220;104.306;2023-03-23T07:17:49;9.10;;;2.03;;
68140;SDS011;54941;52.220;104.306;2023-03-23T07:20:19;7.85;;;1.55;;
68140;SDS011;54941;52.220;104.306;2023-03-23T07:22:46;3.17;;;1.20;;
68140;SDS011;54941;52.220;104.306;2023-03-23T07:25:12;1.40;;;0.40;;
68140;SDS011;54941;52.220;104.306;2023-03-23T07:27:38;3.47;;;1.80;;
68140;SDS011;54941;52.220;104.306;2023-03-23T07:30:05;6.88;;;2.00;;
68140;SDS011;54941;52.220;104.306;2023-03-23T07:32:32;8.07;;;3.00;;
68140;SDS011;54941;52.220;104.306;2023-03-23T07:34:59;7.63;;;2.53;;
68140;SDS011;54941;52.220;104.306;2023-03-23T07:37:27;6.57;;;2.17;;
68140;SDS011;54941;52.220;104.306;2023-03-23T07:39:55;3.33;;;1.58;;
68140;SDS011;54941;52.220;104.306;2023-03-23T07:42:24;7.57;;;1.95;;
68140;SDS011;54941;52.220;104.306;2023-03-23T07:44:50;5.95;;;2.00;;
68140;SDS011;54941;52.220;104.306;2023-03-23T07:47:17;9.57;;;2.65;;
68140;SDS011;54941;52.220;104.306;2023-03-23T07:49:43;7.53;;;3.03;;
68140;SDS011;54941;52.220;104.306;2023-03-23T07:52:10;8.75;;;2.70;;
68140;SDS011;54941;52.220;104.306;2023-03-23T07:54:38;5.85;;;1.67;;
68140;SDS011;54941;52.220;104.306;2023-03-23T07:57:07;9.07;;;2.95;;
68140;SDS011;54941;52.220;104.306;2023-03-23T07:59:33;7.45;;;2.28;;
68140;SDS011;54941;52.220;104.306;2023-03-23T08:02:00;6.65;;;2.30;;
68140;SDS011;54941;52.220;104.306;2023-03-23T08:04:26;3.65;;;1.90;;
68140;SDS011;54941;52.220;104.306;2023-03-23T08:06:52;5.82;;;2.30;;
68140;SDS011;54941;52.220;104.306;2023-03-23T08:09:19;7.45;;;2.42;;
68140;SDS011;54941;52.220;104.306;2023-03-23T08:11:47;5.15;;;2.35;;
68140;SDS011;54941;52.220;104.306;2023-03-23T08:14:13;7.75;;;2.05;;
68140;SDS011;54941;52.220;104.306;2023-03-23T08:16:40;8.75;;;2.55;;
68140;SDS011;54941;52.220;104.306;2023-03-23T08:19:06;6.93;;;2.03;;
68140;SDS011;54941;52.220;104.306;2023-03-23T08:21:35;8.07;;;2.45;;
68140;SDS011;54941;52.220;104.306;2023-03-23T08:24:03;7.95;;;2.15;;
68140;SDS011;54941;52.220;104.306;2023-03-23T08:26:30;4.55;;;2.38;;
68140;SDS011;54941;52.220;104.306;2023-03-23T08:28:58;4.07;;;2.05;;
68140;SDS011;54941;52.220;104.306;2023-03-23T08:31:24;7.78;;;2.60;;
68140;SDS011;54941;52.220;104.306;2023-03-23T08:33:51;4.32;;;2.05;;
68140;SDS011;54941;52.220;104.306;2023-03-23T08:36:22;5.70;;;2.50;;
68140;SDS011;54941;52.220;104.306;2023-03-23T08:38:50;5.53;;;2.05;;
68140;SDS011;54941;52.220;104.306;2023-03-23T08:41:16;3.53;;;1.65;;
68140;SDS011;54941;52.220;104.306;2023-03-23T08:43:43;7.57;;;2.67;;
68140;SDS011;54941;52.220;104.306;2023-03-23T08:46:10;4.63;;;1.83;;
68140;SDS011;54941;52.220;104.306;2023-03-23T08:48:37;6.13;;;2.00;;
68140;SDS011;54941;52.220;104.306;2023-03-23T08:51:04;5.30;;;2.30;;
68140;SDS011;54941;52.220;104.306;2023-03-23T08:53:31;5.20;;;1.92;;
68140;SDS011;54941;52.220;104.306;2023-03-23T08:56:02;7.30;;;2.30;;
68140;SDS011;54941;52.220;104.306;2023-03-23T08:58:29;12.60;;;3.95;;
68140;SDS011;54941;52.220;104.306;2023-03-23T09:00:56;4.50;;;1.90;;
68140;SDS011;54941;52.220;104.306;2023-03-23T09:03:24;4.00;;;1.63;;
68140;SDS011;54941;52.220;104.306;2023-03-23T09:05:50;4.57;;;1.80;;
68140;SDS011;54941;52.220;104.306;2023-03-23T09:08:16;4.47;;;1.23;;
68140;SDS011;54941;52.220;104.306;2023-03-23T09:10:43;6.45;;;1.83;;
68140;SDS011;54941;52.220;104.306;2023-03-23T09:13:09;5.43;;;2.05;;
68140;SDS011;54941;52.220;104.306;2023-03-23T09:15:35;5.38;;;1.90;;
68140;SDS011;54941;52.220;104.306;2023-03-23T09:18:03;5.80;;;2.15;;
68140;SDS011;54941;52.220;104.306;2023-03-23T09:20:31;5.05;;;1.90;;
68140;SDS011;54941;52.220;104.306;2023-03-23T09:22:57;7.22;;;1.90;;
68140;SDS011;54941;52.220;104.306;2023-03-23T09:25:24;3.78;;;1.75;;
68140;SDS011;54941;52.220;104.306;2023-03-23T09:27:52;5.32;;;2.00;;
68140;SDS011;54941;52.220;104.306;2023-03-23T09:30:21;4.20;;;1.58;;
68140;SDS011;54941;52.220;104.306;2023-03-23T09:32:48;4.38;;;1.83;;
68140;SDS011;54941;52.220;104.306;2023-03-23T09:35:15;4.22;;;2.03;;
68140;SDS011;54941;52.220;104.306;2023-03-23T09:37:44;6.18;;;1.80;;
68140;SDS011;54941;52.220;104.306;2023-03-23T09:40:11;4.07;;;1.75;;
68140;SDS011;54941;52.220;104.306;2023-03-23T09:42:43;6.47;;;1.42;;
68140;SDS011;54941;52.220;104.306;2023-03-23T09:45:17;3.97;;;1.10;;
68140;SDS011;54941;52.220;104.306;2023-03-23T09:47:53;3.35;;;1.05;;
68140;SDS011;54941;52.220;104.306;2023-03-23T09:50:31;8.07;;;1.63;;
68140;SDS011;54941;52.220;104.306;2023-03-23T09:53:02;3.42;;;1.23;;
68140;SDS011;54941;52.220;104.306;2023-03-23T09:55:35;3.65;;;0.98;;
68140;SDS011;54941;52.220;104.306;2023-03-23T09:58:07;3.38;;;1.40;;
68140;SDS011;54941;52.220;104.306;2023-03-23T10:00:39;5.65;;;1.17;;
68140;SDS011;54941;52.220;104.306;2023-03-23T10:03:10;6.72;;;1.75;;
68140;SDS011;54941;52.220;104.306;2023-03-23T10:05:39;5.30;;;2.40;;
68140;SDS011;54941;52.220;104.306;2023-03-23T10:08:15;6.82;;;2.05;;
68140;SDS011;54941;52.220;104.306;2023-03-23T10:10:45;5.70;;;1.90;;
68140;SDS011;54941;52.220;104.306;2023-03-23T10:13:22;4.22;;;1.77;;
68140;SDS011;54941;52.220;104.306;2023-03-23T10:15:56;3.40;;;1.40;;
68140;SDS011;54941;52.220;104.306;2023-03-23T10:18:24;3.45;;;1.50;;
68140;SDS011;54941;52.220;104.306;2023-03-23T10:20:56;7.10;;;2.10;;
68140;SDS011;54941;52.220;104.306;2023-03-23T10:23:34;4.63;;;1.83;;
68140;SDS011;54941;52.220;104.306;2023-03-23T10:26:12;9.50;;;2.03;;
68140;SDS011;54941;52.220;104.306;2023-03-23T10:31:14;6.47;;;1.60;;
68140;SDS011;54941;52.220;104.306;2023-03-23T10:33:45;5.30;;;1.73;;
68140;SDS011;54941;52.220;104.306;2023-03-23T10:36:14;7.80;;;2.03;;
68140;SDS011;54941;52.220;104.306;2023-03-23T10:38:48;5.45;;;1.95;;
68140;SDS011;54941;52.220;104.306;2023-03-23T10:41:21;6.97;;;1.95;;
68140;SDS011;54941;52.220;104.306;2023-03-23T10:43:48;5.53;;;2.05;;
68140;SDS011;54941;52.220;104.306;2023-03-23T10:46:25;5.07;;;1.92;;
68140;SDS011;54941;52.220;104.306;2023-03-23T10:49:01;5.22;;;1.75;;
68140;SDS011;54941;52.220;104.306;2023-03-23T10:51:32;4.35;;;1.48;;
68140;SDS011;54941;52.220;104.306;2023-03-23T10:56:37;5.13;;;1.80;;
68140;SDS011;54941;52.220;104.306;2023-03-23T10:59:11;3.30;;;1.15;;
68140;SDS011;54941;52.220;104.306;2023-03-23T11:01:41;4.80;;;1.60;;
68140;SDS011;54941;52.220;104.306;2023-03-23T11:04:11;3.42;;;1.20;;
68140;SDS011;54941;52.220;104.306;2023-03-23T11:06:43;3.15;;;1.45;;
68140;SDS011;54941;52.220;104.306;2023-03-23T11:09:13;4.82;;;1.38;;
68140;SDS011;54941;52.220;104.306;2023-03-23T11:11:42;4.93;;;1.27;;
68140;SDS011;54941;52.220;104.306;2023-03-23T11:14:15;6.03;;;1.25;;
68140;SDS011;54941;52.220;104.306;2023-03-23T11:16:43;11.45;;;2.00;;
68140;SDS011;54941;52.220;104.306;2023-03-23T11:19:12;5.25;;;1.65;;
68140;SDS011;54941;52.220;104.306;2023-03-23T11:21:47;3.38;;;1.30;;
68140;SDS011;54941;52.220;104.306;2023-03-23T11:24:22;3.65;;;1.58;;
68140;SDS011;54941;52.220;104.306;2023-03-23T11:26:50;10.65;;;2.10;;
68140;SDS011;54941;52.220;104.306;2023-03-23T11:29:18;6.68;;;1.75;;
68140;SDS011;54941;52.220;104.306;2023-03-23T11:31:47;3.97;;;1.73;;
68140;SDS011;54941;52.220;104.306;2023-03-23T11:34:15;6.32;;;2.17;;
68140;SDS011;54941;52.220;104.306;2023-03-23T11:36:47;14.48;;;2.47;;
68140;SDS011;54941;52.220;104.306;2023-03-23T11:39:20;7.07;;;3.25;;
68140;SDS011;54941;52.220;104.306;2023-03-23T11:41:50;13.60;;;4.00;;
68140;SDS011;54941;52.220;104.306;2023-03-23T11:46:53;8.50;;;2.80;;
68140;SDS011;54941;52.220;104.306;2023-03-23T11:49:29;13.23;;;2.78;;
68140;SDS011;54941;52.220;104.306;2023-03-23T11:52:16;8.48;;;3.05;;
68140;SDS011;54941;52.220;104.306;2023-03-23T11:54:50;7.25;;;2.47;;
68140;SDS011;54941;52.220;104.306;2023-03-23T11:57:22;9.88;;;2.55;;
68140;SDS011;54941;52.220;104.306;2023-03-23T11:59:48;7.88;;;3.00;;
68140;SDS011;54941;52.220;104.306;2023-03-23T12:02:28;9.23;;;2.33;;
68140;SDS011;54941;52.220;104.306;2023-03-23T12:08:11;6.53;;;1.88;;
68140;SDS011;54941;52.220;104.306;2023-03-23T12:11:01;6.75;;;2.47;;
68140;SDS011;54941;52.220;104.306;2023-03-23T12:13:40;6.32;;;1.77;;
68140;SDS011;54941;52.220;104.306;2023-03-23T12:16:15;12.95;;;2.90;;
68140;SDS011;54941;52.220;104.306;2023-03-23T12:18:55;6.45;;;2.75;;
68140;SDS011;54941;52.220;104.306;2023-03-23T12:21:28;8.20;;;2.63;;
68140;SDS011;54941;52.220;104.306;2023-03-23T12:24:03;10.40;;;3.22;;
68140;SDS011;54941;52.220;104.306;2023-03-23T12:26:41;7.30;;;2.38;;
68140;SDS011;54941;52.220;104.306;2023-03-23T12:29:16;9.45;;;2.22;;
68140;SDS011;54941;52.220;104.306;2023-03-23T12:31:55;10.15;;;2.78;;
68140;SDS011;54941;52.220;104.306;2023-03-23T12:34:33;10.43;;;3.05;;
68140;SDS011;54941;52.220;104.306;2023-03-23T12:37:10;8.45;;;2.47;;
68140;SDS011;54941;52.220;104.306;2023-03-23T12:39:58;12.35;;;3.38;;
68140;SDS011;54941;52.220;104.306;2023-03-23T12:42:43;7.57;;;2.85;;
68140;SDS011;54941;52.220;104.306;2023-03-23T12:45:17;9.38;;;2.55;;
68140;SDS011;54941;52.220;104.306;2023-03-23T12:47:50;8.80;;;3.10;;
68140;SDS011;54941;52.220;104.306;2023-03-23T12:50:23;7.03;;;2.08;;
68140;SDS011;54941;52.220;104.306;2023-03-23T12:52:55;8.55;;;2.58;;
68140;SDS011;54941;52.220;104.306;2023-03-23T12:55:26;7.75;;;2.17;;
68140;SDS011;54941;52.220;104.306;2023-03-23T12:58:01;6.32;;;2.00;;
68140;SDS011;54941;52.220;104.306;2023-03-23T13:00:33;6.85;;;2.17;;
68140;SDS011;54941;52.220;104.306;2023-03-23T13:03:20;4.75;;;1.45;;
68140;SDS011;54941;52.220;104.306;2023-03-23T13:05:50;7.03;;;2.00;;
68140;SDS011;54941;52.220;104.306;2023-03-23T13:08:23;4.25;;;1.85;;
68140;SDS011;54941;52.220;104.306;2023-03-23T13:10:53;4.72;;;1.83;;
68140;SDS011;54941;52.220;104.306;2023-03-23T13:13:39;8.35;;;2.45;;
68140;SDS011;54941;52.220;104.306;2023-03-23T13:16:10;9.73;;;2.28;;
68140;SDS011;54941;52.220;104.306;2023-03-23T13:18:42;5.50;;;2.28;;
68140;SDS011;54941;52.220;104.306;2023-03-23T13:21:16;8.68;;;1.98;;
68140;SDS011;54941;52.220;104.306;2023-03-23T13:23:49;6.75;;;2.10;;
68140;SDS011;54941;52.220;104.306;2023-03-23T13:26:19;8.45;;;2.22;;
68140;SDS011;54941;52.220;104.306;2023-03-23T13:28:51;4.15;;;1.83;;
68140;SDS011;54941;52.220;104.306;2023-03-23T13:31:22;6.45;;;1.88;;
68140;SDS011;54941;52.220;104.306;2023-03-23T13:33:49;9.98;;;1.60;;
68140;SDS011;54941;52.220;104.306;2023-03-23T13:36:18;9.05;;;2.60;;
68140;SDS011;54941;52.220;104.306;2023-03-23T13:38:50;5.15;;;1.83;;
68140;SDS011;54941;52.220;104.306;2023-03-23T13:41:17;5.53;;;1.92;;
68140;SDS011;54941;52.220;104.306;2023-03-23T13:43:46;3.35;;;1.25;;
68140;SDS011;54941;52.220;104.306;2023-03-23T13:46:25;8.55;;;1.60;;
68140;SDS011;54941;52.220;104.306;2023-03-23T13:49:04;3.17;;;1.35;;
68140;SDS011;54941;52.220;104.306;2023-03-23T13:51:47;7.13;;;2.05;;
68140;SDS011;54941;52.220;104.306;2023-03-23T13:54:24;3.10;;;1.20;;
68140;SDS011;54941;52.220;104.306;2023-03-23T13:56:55;4.05;;;1.10;;
68140;SDS011;54941;52.220;104.306;2023-03-23T13:59:31;8.20;;;1.33;;
68140;SDS011;54941;52.220;104.306;2023-03-23T14:05:07;2.05;;;0.93;;
68140;SDS011;54941;52.220;104.306;2023-03-23T14:07:50;5.28;;;1.65;;
68140;SDS011;54941;52.220;104.306;2023-03-23T14:10:19;3.55;;;1.45;;
68140;SDS011;54941;52.220;104.306;2023-03-23T14:12:45;3.53;;;1.15;;
68140;SDS011;54941;52.220;104.306;2023-03-23T14:15:15;3.13;;;0.95;;
68140;SDS011;54941;52.220;104.306;2023-03-23T14:17:43;2.10;;;1.05;;
68140;SDS011;54941;52.220;104.306;2023-03-23T14:20:16;2.58;;;0.93;;
68140;SDS011;54941;52.220;104.306;2023-03-23T14:22:52;5.28;;;1.88;;
68140;SDS011;54941;52.220;104.306;2023-03-23T14:25:20;3.00;;;1.00;;
68140;SDS011;54941;52.220;104.306;2023-03-23T14:27:46;3.83;;;1.10;;
68140;SDS011;54941;52.220;104.306;2023-03-23T14:30:14;2.55;;;0.88;;
68140;SDS011;54941;52.220;104.306;2023-03-23T14:32:45;2.13;;;0.60;;
68140;SDS011;54941;52.220;104.306;2023-03-23T14:35:13;2.35;;;1.00;;
68140;SDS011;54941;52.220;104.306;2023-03-23T14:37:45;5.20;;;1.10;;
68140;SDS011;54941;52.220;104.306;2023-03-23T14:40:17;5.03;;;1.30;;
68140;SDS011;54941;52.220;104.306;2023-03-23T14:42:44;4.75;;;1.70;;
68140;SDS011;54941;52.220;104.306;2023-03-23T14:45:12;6.70;;;2.00;;
68140;SDS011;54941;52.220;104.306;2023-03-23T14:47:42;4.22;;;1.38;;